createdAt,value
2022-08-18T00:01:48.755Z,60.86
2022-08-18T00:04:35.999Z,61.61
2022-08-18T00:07:02.659Z,61.15
2022-08-18T00:09:32.486Z,60.46
2022-08-18T00:12:03.035Z,61.38
2022-08-18T00:14:30.039Z,61.09
2022-08-18T00:16:56.696Z,61.12
2022-08-18T00:19:45.635Z,60.44
2022-08-18T00:22:15.198Z,60.98
2022-08-18T00:24:48.265Z,59.29
2022-08-18T00:27:23.062Z,60.02
2022-08-18T00:29:52.689Z,60.89
2022-08-18T00:32:25.713Z,60.69
2022-08-18T00:34:53.775Z,61.12
2022-08-18T00:37:21.703Z,61.11
2022-08-18T00:39:51.623Z,60.84
2022-08-18T00:42:29.140Z,61.29
2022-08-18T00:45:01.660Z,61.29
2022-08-18T00:47:41.768Z,59.92
2022-08-18T00:50:14.759Z,60.09
2022-08-18T00:52:46.978Z,60.39
2022-08-18T00:55:14.725Z,61.46
2022-08-18T00:57:43.117Z,59.96
2022-08-18T01:00:13.082Z,59.40
2022-08-18T01:02:44.945Z,58.87
2022-08-18T01:05:19.923Z,58.57
2022-08-18T01:07:49.030Z,59.16
2022-08-18T01:10:20.407Z,58.60
2022-08-18T01:12:55.891Z,58.35
2022-08-18T01:15:27.826Z,58.17
2022-08-18T01:18:17.519Z,58.53
2022-08-18T01:21:06.493Z,57.84
2022-08-18T01:23:33.686Z,57.88
2022-08-18T01:26:00.549Z,57.75
2022-08-18T01:28:28.114Z,57.23
2022-08-18T01:30:58.288Z,56.73
2022-08-18T01:33:40.241Z,56.61
2022-08-18T01:36:16.927Z,56.35
2022-08-18T01:38:46.030Z,57.29
2022-08-18T01:41:27.551Z,56.92
2022-08-18T01:43:58.786Z,57.08
2022-08-18T01:46:27.521Z,56.92
2022-08-18T01:48:54.429Z,56.54
2022-08-18T01:51:38.835Z,56.83
2022-08-18T01:54:07.807Z,56.98
2022-08-18T01:56:34.359Z,56.36
2022-08-18T01:59:01.041Z,57.84
2022-08-18T02:01:36.654Z,57.85
2022-08-18T02:04:31.231Z,57.05
2022-08-18T02:06:53.223Z,56.42
2022-08-18T02:09:23.831Z,57.69
2022-08-18T02:11:50.700Z,57.72
2022-08-18T02:14:20.429Z,57.29
2022-08-18T02:17:01.366Z,57.47
2022-08-18T02:19:38.563Z,57.78
2022-08-18T02:22:07.181Z,58.25
2022-08-18T02:24:33.838Z,58.49
2022-08-18T02:27:00.923Z,58.51
2022-08-18T02:29:27.823Z,58.42
2022-08-18T02:31:54.730Z,58.63
2022-08-18T02:34:21.436Z,59.36
2022-08-18T02:36:48.175Z,59.39
2022-08-18T02:39:14.855Z,60.51
2022-08-18T02:41:42.164Z,59.92
2022-08-18T02:44:09.239Z,59.08
2022-08-18T02:46:36.800Z,59.99
2022-08-18T02:49:05.652Z,59.77
2022-08-18T02:51:32.349Z,60.26
2022-08-18T02:53:59.883Z,60.06
2022-08-18T02:56:40.612Z,60.21
2022-08-18T02:59:12.381Z,60.27
2022-08-18T03:01:48.680Z,61.15
2022-08-18T03:04:22.988Z,60.43
2022-08-18T03:06:52.958Z,61.15
2022-08-18T03:09:20.104Z,61.35
2022-08-18T03:11:47.142Z,61.34
2022-08-18T03:14:14.902Z,61.45
2022-08-18T03:16:52.742Z,62.31
2022-08-18T03:19:29.316Z,62.69
2022-08-18T03:21:59.340Z,62.32
2022-08-18T03:24:30.193Z,62.28
2022-08-18T03:26:57.353Z,62.72
2022-08-18T03:29:27.914Z,62.45
2022-08-18T03:31:57.900Z,63.39
2022-08-18T03:34:24.535Z,64.63
2022-08-18T03:36:51.554Z,64.68
2022-08-18T03:39:19.631Z,64.70
2022-08-18T03:41:59.989Z,64.46
2022-08-18T03:44:33.300Z,64.29
2022-08-18T03:47:02.972Z,65.15
2022-08-18T03:49:30.381Z,64.58
2022-08-18T03:52:00.180Z,65.24
2022-08-18T03:54:26.946Z,65.74
2022-08-18T03:56:55.917Z,65.83
2022-08-18T03:59:25.556Z,66.01
2022-08-18T04:01:54.897Z,65.24
2022-08-18T04:04:25.020Z,65.34
2022-08-18T04:07:00.619Z,65.93
2022-08-18T04:09:30.015Z,66.50
2022-08-18T04:11:58.409Z,65.67
2022-08-18T04:14:31.946Z,65.38
2022-08-18T04:16:59.545Z,64.86
2022-08-18T04:19:27.817Z,64.90
2022-08-18T04:21:57.563Z,64.04
2022-08-18T04:24:26.542Z,64.90
2022-08-18T04:26:58.164Z,64.69
2022-08-18T04:29:25.029Z,65.75
2022-08-18T04:31:52.245Z,65.23
2022-08-18T04:34:20.653Z,65.64
2022-08-18T04:36:47.796Z,65.75
2022-08-18T04:39:14.676Z,65.59
2022-08-18T04:41:43.977Z,65.33
2022-08-18T04:44:12.827Z,65.13
2022-08-18T04:46:46.406Z,65.65
2022-08-18T04:49:14.429Z,65.64
2022-08-18T04:52:36.484Z,64.53
2022-08-18T04:54:31.373Z,64.97
2022-08-18T04:56:57.987Z,64.42
2022-08-18T04:59:25.339Z,65.74
2022-08-18T05:01:51.911Z,64.18
2022-08-18T05:04:18.744Z,64.87
2022-08-18T05:06:46.277Z,66.09
2022-08-18T05:09:16.701Z,65.14
2022-08-18T05:11:50.446Z,65.51
2022-08-18T05:14:17.833Z,66.14
2022-08-18T05:16:48.727Z,65.49
2022-08-18T05:19:23.447Z,64.85
2022-08-18T05:21:59.594Z,65.29
2022-08-18T05:24:33.568Z,65.48
2022-08-18T05:27:05.051Z,65.40
2022-08-18T05:29:41.526Z,65.07
2022-08-18T05:32:12.446Z,64.59
2022-08-18T05:35:02.569Z,64.96
2022-08-18T05:37:44.140Z,63.81
2022-08-18T05:40:11.902Z,64.14
2022-08-18T05:42:40.830Z,64.83
2022-08-18T05:45:17.052Z,64.48
2022-08-18T05:47:44.735Z,64.42
2022-08-18T05:50:17.283Z,64.93
2022-08-18T05:52:53.231Z,64.03
2022-08-18T05:55:52.703Z,63.38
2022-08-18T05:58:32.875Z,63.71
2022-08-18T06:01:10.566Z,64.47
2022-08-18T06:03:54.033Z,65.86
2022-08-18T06:06:25.580Z,64.25
2022-08-18T06:09:17.925Z,64.55
2022-08-18T06:11:44.808Z,64.08
2022-08-18T06:14:13.421Z,64.03
2022-08-18T06:16:40.099Z,64.63
2022-08-18T06:19:27.088Z,65.38
2022-08-18T06:22:12.493Z,63.98
2022-08-18T06:25:06.767Z,64.63
2022-08-18T06:27:42.187Z,64.80
2022-08-18T06:30:20.410Z,64.28
2022-08-18T06:33:23.823Z,63.45
2022-08-18T06:35:54.920Z,64.34
2022-08-18T06:38:39.719Z,63.33
2022-08-18T06:41:38.066Z,64.02
2022-08-18T06:44:10.627Z,63.68
2022-08-18T06:47:04.397Z,62.95
2022-08-18T06:49:42.188Z,63.47
2022-08-18T06:52:39.531Z,62.82
2022-08-18T06:55:16.053Z,62.52
2022-08-18T06:58:03.660Z,61.48
2022-08-18T07:00:34.616Z,63.08
2022-08-18T07:03:12.906Z,62.15
2022-08-18T07:05:56.899Z,61.46
2022-08-18T07:08:35.416Z,61.31
2022-08-18T07:11:18.504Z,62.12
2022-08-18T07:13:54.938Z,60.68
2022-08-18T07:16:57.116Z,61.24
2022-08-18T07:19:29.212Z,61.12
2022-08-18T07:22:14.801Z,60.46
2022-08-18T07:24:47.061Z,60.65
2022-08-18T07:27:40.245Z,61.16
2022-08-18T07:30:21.859Z,60.80
2022-08-18T07:32:54.972Z,59.93
2022-08-18T07:35:39.527Z,59.53
2022-08-18T07:41:24.231Z,60.02
2022-08-18T07:44:00.768Z,59.97
2022-08-18T07:47:02.136Z,58.94
2022-08-18T07:49:36.493Z,58.94
2022-08-18T07:52:44.285Z,59.34
2022-08-18T07:55:44.094Z,57.93
2022-08-18T07:58:27.149Z,57.36
2022-08-18T08:01:05.614Z,58.17
2022-08-18T08:03:59.162Z,57.06
2022-08-18T08:06:31.533Z,57.57
2022-08-18T08:08:59.076Z,57.41
2022-08-18T08:11:45.186Z,57.86
2022-08-18T08:14:40.192Z,58.24
2022-08-18T08:17:18.171Z,57.42
2022-08-18T08:20:03.031Z,56.64
2022-08-18T08:22:52.986Z,55.88
2022-08-18T08:25:45.885Z,55.82
2022-08-18T08:28:26.573Z,55.93
2022-08-18T08:31:33.235Z,55.86
2022-08-18T08:34:18.657Z,55.60
2022-08-18T08:36:47.363Z,55.45
2022-08-18T08:39:31.998Z,55.82
2022-08-18T08:42:31.005Z,54.75
2022-08-18T08:45:06.328Z,54.72
2022-08-18T08:47:44.507Z,55.98
2022-08-18T08:50:19.458Z,55.17
2022-08-18T08:52:59.868Z,55.98
2022-08-18T08:55:31.224Z,54.44
2022-08-18T08:58:17.071Z,55.10
2022-08-18T09:00:45.673Z,55.72
2022-08-18T09:03:15.353Z,56.57
2022-08-18T09:05:56.873Z,55.19
2022-08-18T09:08:46.222Z,54.39
2022-08-18T09:11:28.411Z,54.01
2022-08-18T09:13:57.945Z,54.42
2022-08-18T09:16:41.285Z,54.04
2022-08-18T09:19:49.929Z,53.63
2022-08-18T09:22:31.876Z,53.96
2022-08-18T09:24:59.343Z,54.36
2022-08-18T09:28:09.964Z,53.61
2022-08-18T09:30:40.377Z,53.82
2022-08-18T09:33:23.031Z,53.28
2022-08-18T09:36:34.532Z,53.86
2022-08-18T09:39:38.691Z,53.92
2022-08-18T09:42:29.908Z,52.95
2022-08-18T09:45:01.586Z,53.42
2022-08-18T09:50:30.216Z,52.53
2022-08-18T09:56:00.749Z,53.06
2022-08-18T09:58:29.407Z,53.36
2022-08-18T10:01:30.465Z,53.61
2022-08-18T10:04:15.360Z,52.83
2022-08-18T10:06:48.327Z,52.39
2022-08-18T10:09:36.091Z,51.51
2022-08-18T10:12:31.563Z,51.43
2022-08-18T10:15:32.937Z,50.98
2022-08-18T10:18:06.537Z,51.81
2022-08-18T10:20:53.138Z,51.46
2022-08-18T10:23:58.152Z,50.67
2022-08-18T10:26:35.225Z,51.32
2022-08-18T10:29:11.427Z,49.89
2022-08-18T10:31:59.103Z,50.05
2022-08-18T10:34:52.942Z,49.24
2022-08-18T10:37:39.795Z,49.43
2022-08-18T10:40:09.584Z,50.40
2022-08-18T10:42:58.647Z,50.18
2022-08-18T10:45:31.413Z,49.48
2022-08-18T10:51:12.128Z,50.00
2022-08-18T10:53:54.675Z,49.90
2022-08-18T10:56:43.645Z,49.86
2022-08-18T10:59:29.183Z,48.56
2022-08-18T11:02:32.197Z,48.46
2022-08-18T11:05:10.611Z,47.45
2022-08-18T11:07:43.011Z,45.68
2022-08-18T11:10:30.153Z,42.95
2022-08-18T11:13:25.381Z,40.83
2022-08-18T11:16:18.749Z,39.04
2022-08-18T11:18:49.551Z,38.13
2022-08-18T11:21:54.959Z,37.43
2022-08-18T11:24:27.285Z,36.18
2022-08-18T11:27:01.996Z,35.08
2022-08-18T11:29:42.658Z,34.06
2022-08-18T11:32:19.758Z,32.56
2022-08-18T11:35:05.082Z,32.36
2022-08-18T11:38:03.740Z,31.41
2022-08-18T11:43:29.801Z,31.24
2022-08-18T11:46:24.163Z,30.70
2022-08-18T11:48:57.383Z,31.34
2022-08-18T11:51:31.473Z,31.58
2022-08-18T11:54:00.129Z,33.89
2022-08-18T11:56:35.718Z,34.73
2022-08-18T11:59:53.091Z,34.91
2022-08-18T12:02:20.946Z,36.28
2022-08-18T12:04:53.120Z,36.72
2022-08-18T12:07:32.118Z,38.52
2022-08-18T12:10:26.217Z,39.74
2022-08-18T12:15:46.570Z,41.16
2022-08-18T12:18:26.298Z,39.98
2022-08-18T12:20:58.971Z,39.91
2022-08-18T12:23:26.162Z,39.46
2022-08-18T12:25:52.792Z,39.56
2022-08-18T12:31:15.163Z,38.49
2022-08-18T12:33:48.216Z,38.05
2022-08-18T12:36:29.829Z,38.59
2022-08-18T12:38:57.276Z,39.49
2022-08-18T12:41:24.480Z,40.16
2022-08-18T12:43:58.817Z,39.43
2022-08-18T12:46:26.774Z,39.43
2022-08-18T12:48:53.712Z,37.67
2022-08-18T12:54:10.483Z,37.48
2022-08-18T12:56:41.102Z,36.07
2022-08-18T12:59:09.463Z,36.39
2022-08-18T13:01:40.555Z,35.09
2022-08-18T13:04:12.993Z,33.83
2022-08-18T13:06:59.550Z,35.93
2022-08-18T13:09:34.940Z,35.78
2022-08-18T13:12:16.507Z,34.69
2022-08-18T13:14:44.486Z,34.54
2022-08-18T13:17:32.136Z,35.49
2022-08-18T13:20:00.935Z,36.77
2022-08-18T13:22:32.090Z,37.06
2022-08-18T13:25:04.266Z,37.21
2022-08-18T13:27:35.293Z,37.08
2022-08-18T13:30:29.654Z,36.43
2022-08-18T13:33:00.717Z,38.40
2022-08-18T13:35:38.020Z,38.74
2022-08-18T13:38:14.160Z,38.78
2022-08-18T13:40:50.475Z,38.84
2022-08-18T13:43:21.783Z,38.23
2022-08-18T13:45:53.519Z,38.17
2022-08-18T13:48:22.475Z,39.56
2022-08-18T13:50:52.248Z,39.76
2022-08-18T13:53:21.892Z,40.42
2022-08-18T13:55:49.352Z,40.19
2022-08-18T13:58:20.145Z,40.51
2022-08-18T14:00:49.481Z,40.22
2022-08-18T14:03:20.586Z,41.29
2022-08-18T14:06:01.596Z,40.68
2022-08-18T14:08:29.753Z,40.23
2022-08-18T14:10:59.293Z,40.46
2022-08-18T14:13:26.575Z,40.67
2022-08-18T14:15:57.301Z,41.67
2022-08-18T14:18:29.247Z,42.25
2022-08-18T14:21:21.805Z,42.30
2022-08-18T14:24:10.562Z,42.08
2022-08-18T14:26:51.015Z,41.51
2022-08-18T14:29:45.433Z,41.90
2022-08-18T14:32:07.248Z,42.05
2022-08-18T14:34:34.612Z,41.64
2022-08-18T14:37:02.909Z,41.18
2022-08-18T14:39:29.675Z,42.56
2022-08-18T14:41:58.467Z,42.47
2022-08-18T14:44:31.875Z,42.29
2022-08-18T14:46:59.542Z,42.96
2022-08-18T14:49:28.389Z,43.13
2022-08-18T14:51:57.919Z,42.54
2022-08-18T14:54:28.395Z,42.97
2022-08-18T14:56:57.608Z,43.57
2022-08-18T14:59:25.623Z,43.33
2022-08-18T15:01:52.509Z,43.09
2022-08-18T15:04:20.801Z,43.72
2022-08-18T15:06:56.017Z,42.75
2022-08-18T15:09:27.799Z,43.07
2022-08-18T15:11:59.221Z,43.38
2022-08-18T15:14:34.808Z,42.60
2022-08-18T15:17:12.022Z,42.96
2022-08-18T15:20:00.133Z,43.22
2022-08-18T15:22:47.898Z,43.60
2022-08-18T15:25:33.361Z,43.48
2022-08-18T15:28:00.515Z,44.51
2022-08-18T15:30:27.699Z,43.57
2022-08-18T15:32:54.600Z,43.96
2022-08-18T15:35:21.356Z,44.44
2022-08-18T15:37:51.403Z,44.30
2022-08-18T15:40:30.836Z,44.45
2022-08-18T15:43:10.039Z,44.29
2022-08-18T15:45:56.488Z,44.28
2022-08-18T15:48:27.338Z,44.41
2022-08-18T15:50:55.190Z,45.63
2022-08-18T15:53:29.987Z,45.99
2022-08-18T15:55:57.241Z,45.51
2022-08-18T15:58:26.661Z,47.59
2022-08-18T16:00:53.843Z,47.49
2022-08-18T16:03:21.582Z,46.69
2022-08-18T16:05:52.994Z,47.01
2022-08-18T16:08:22.922Z,47.66
2022-08-18T16:10:50.074Z,46.76
2022-08-18T16:13:16.946Z,47.73
2022-08-18T16:15:46.890Z,46.86
2022-08-18T16:18:16.359Z,47.22
2022-08-18T16:20:44.132Z,47.45
2022-08-18T16:23:15.618Z,47.28
2022-08-18T16:25:43.516Z,48.73
2022-08-18T16:28:13.368Z,49.39
2022-08-18T16:30:40.628Z,49.83
2022-08-18T16:33:07.445Z,49.53
2022-08-18T16:35:35.277Z,49.77
2022-08-18T16:38:09.308Z,49.93
2022-08-18T16:40:37.620Z,50.66
2022-08-18T16:43:04.997Z,51.59
2022-08-18T16:45:33.624Z,53.37
2022-08-18T16:48:00.777Z,53.20
2022-08-18T16:50:28.578Z,51.72
2022-08-18T16:52:55.989Z,53.57
2022-08-18T16:55:23.064Z,52.86
2022-08-18T16:58:10.624Z,51.89
2022-08-18T17:00:57.480Z,51.53
2022-08-18T17:03:43.297Z,51.42
2022-08-18T17:06:13.954Z,50.75
2022-08-18T17:08:42.661Z,50.82
2022-08-18T17:11:13.800Z,50.80
2022-08-18T17:13:41.972Z,50.92
2022-08-18T17:16:10.287Z,50.74
2022-08-18T17:18:38.502Z,50.32
2022-08-18T17:21:08.022Z,50.98
2022-08-18T17:23:39.033Z,50.87
2022-08-18T17:26:09.535Z,51.05
2022-08-18T17:28:45.676Z,51.31
2022-08-18T17:31:20.441Z,52.01
2022-08-18T17:33:47.488Z,51.69
2022-08-18T17:36:52.957Z,51.30
2022-08-18T17:39:25.617Z,51.95
2022-08-18T17:42:11.178Z,51.41
2022-08-18T17:44:46.169Z,52.93
2022-08-18T17:47:37.760Z,52.89
2022-08-18T17:50:36.275Z,53.90
2022-08-18T17:53:06.457Z,52.90
2022-08-18T17:55:41.615Z,52.25
2022-08-18T17:58:18.842Z,52.45
2022-08-18T18:00:45.523Z,52.00
2022-08-18T18:03:13.448Z,52.53
2022-08-18T18:05:44.302Z,52.14
2022-08-18T18:08:11.252Z,55.32
2022-08-18T18:11:02.361Z,56.24
2022-08-18T18:13:33.659Z,58.42
2022-08-18T18:16:18.531Z,59.84
2022-08-18T18:18:46.196Z,59.00
2022-08-18T18:21:23.099Z,60.70
2022-08-18T18:24:09.754Z,60.59
2022-08-18T18:26:46.005Z,60.80
2022-08-18T18:29:33.432Z,60.77
2022-08-18T18:32:17.236Z,61.99
2022-08-18T18:34:46.062Z,62.50
2022-08-18T18:37:33.092Z,61.39
2022-08-18T18:40:06.345Z,62.31
2022-08-18T18:42:35.207Z,63.53
2022-08-18T18:45:09.521Z,63.21
2022-08-18T18:48:06.393Z,63.75
2022-08-18T18:50:55.847Z,63.34
2022-08-18T18:53:35.849Z,63.81
2022-08-18T18:56:19.692Z,64.16
2022-08-18T18:58:52.045Z,62.40
2022-08-18T19:01:43.500Z,62.61
2022-08-18T19:04:18.541Z,63.77
2022-08-18T19:06:59.056Z,63.42
2022-08-18T19:09:48.484Z,62.79
2022-08-18T19:12:26.996Z,62.63
2022-08-18T19:15:00.363Z,63.32
2022-08-18T19:17:39.107Z,63.15
2022-08-18T19:20:13.064Z,62.93
2022-08-18T19:22:42.508Z,63.46
2022-08-18T19:25:26.448Z,62.54
2022-08-18T19:27:59.387Z,63.78
2022-08-18T19:30:26.551Z,63.84
2022-08-18T19:32:58.318Z,63.23
2022-08-18T19:35:58.815Z,63.61
2022-08-18T19:38:32.815Z,64.09
2022-08-18T19:41:20.278Z,66.18
2022-08-18T19:43:57.918Z,65.22
2022-08-18T19:46:38.038Z,64.75
2022-08-18T19:49:18.600Z,65.64
2022-08-18T19:51:49.843Z,65.02
2022-08-18T19:54:47.614Z,64.21
2022-08-18T19:57:23.571Z,64.40
2022-08-18T20:00:13.767Z,64.47
2022-08-18T20:03:09.335Z,64.45
2022-08-18T20:06:14.239Z,65.81
2022-08-18T20:09:27.651Z,64.78
2022-08-18T20:12:08.656Z,65.59
2022-08-18T20:14:38.415Z,65.01
2022-08-18T20:17:19.135Z,65.03
2022-08-18T20:20:10.789Z,65.25
2022-08-18T20:22:42.267Z,65.86
2022-08-18T20:25:11.271Z,66.27
2022-08-18T20:27:42.215Z,65.92
2022-08-18T20:30:39.744Z,65.29
2022-08-18T20:33:15.296Z,65.89
2022-08-18T20:36:19.424Z,65.14
2022-08-18T20:38:53.129Z,65.21
2022-08-18T20:41:39.582Z,65.10
2022-08-18T20:44:29.933Z,65.31
2022-08-18T20:46:56.711Z,64.22
2022-08-18T20:49:40.711Z,62.97
2022-08-18T20:52:37.858Z,63.46
2022-08-18T20:55:19.861Z,62.52
2022-08-18T20:57:47.237Z,63.20
2022-08-18T21:00:22.601Z,63.27
2022-08-18T21:02:59.770Z,63.51
2022-08-18T21:05:32.940Z,62.90
2022-08-18T21:08:13.457Z,63.36
2022-08-18T21:10:49.690Z,63.17
2022-08-18T21:13:41.527Z,63.36
2022-08-18T21:16:14.123Z,63.93
2022-08-18T21:18:53.263Z,63.47
2022-08-18T21:21:26.898Z,62.56
2022-08-18T21:23:57.335Z,63.43
2022-08-18T21:26:25.804Z,62.93
2022-08-18T21:28:58.508Z,63.96
2022-08-18T21:31:41.891Z,63.13
2022-08-18T21:34:19.518Z,64.56
2022-08-18T21:36:53.605Z,63.79
2022-08-18T21:39:22.210Z,64.01
2022-08-18T21:41:55.964Z,64.96
2022-08-18T21:44:37.555Z,65.04
2022-08-18T21:47:23.799Z,65.50
2022-08-18T21:50:18.060Z,64.82
2022-08-18T21:52:57.041Z,66.24
2022-08-18T21:55:37.299Z,66.97
2022-08-18T21:58:33.712Z,66.08
2022-08-18T22:01:28.264Z,65.54
2022-08-18T22:04:35.350Z,64.49
2022-08-18T22:07:16.205Z,63.70
2022-08-18T22:10:20.269Z,63.69
2022-08-18T22:13:14.385Z,64.34
2022-08-18T22:15:46.692Z,64.78
2022-08-18T22:18:16.381Z,63.96
2022-08-18T22:20:46.143Z,64.25
2022-08-18T22:23:31.240Z,63.82
2022-08-18T22:26:07.220Z,63.55
2022-08-18T22:28:36.880Z,63.83
2022-08-18T22:31:03.616Z,63.70
2022-08-18T22:33:30.300Z,64.41
2022-08-18T22:35:57.612Z,64.08
2022-08-18T22:38:27.909Z,64.00
2022-08-18T22:40:54.685Z,63.69
2022-08-18T22:43:22.024Z,64.08
2022-08-18T22:45:48.742Z,63.82
2022-08-18T22:48:16.618Z,64.57
2022-08-18T22:50:46.090Z,63.39
2022-08-18T22:53:14.521Z,63.72
2022-08-18T22:55:41.568Z,63.99
2022-08-18T22:58:08.497Z,62.88
2022-08-18T23:00:36.987Z,62.63
2022-08-18T23:03:04.650Z,64.26
2022-08-18T23:05:31.587Z,64.22
2022-08-18T23:07:58.230Z,64.54
2022-08-18T23:10:24.902Z,64.31
2022-08-18T23:12:51.744Z,64.02
2022-08-18T23:15:19.012Z,64.02
2022-08-18T23:17:45.709Z,63.55
2022-08-18T23:20:17.670Z,63.19
2022-08-18T23:22:47.771Z,64.40
2022-08-18T23:25:15.290Z,64.88
2022-08-18T23:27:43.076Z,63.90
2022-08-18T23:30:13.497Z,64.24
2022-08-18T23:32:40.229Z,63.68
2022-08-18T23:35:07.298Z,63.19
2022-08-18T23:37:33.902Z,63.36
2022-08-18T23:40:02.045Z,63.76
2022-08-18T23:42:28.687Z,63.49
2022-08-18T23:45:03.386Z,65.58
2022-08-18T23:47:30.104Z,64.68
2022-08-18T23:49:57.626Z,64.83
2022-08-18T23:52:24.404Z,63.85
2022-08-18T23:54:51.081Z,64.54
2022-08-18T23:57:17.773Z,64.27
2022-08-18T23:59:44.459Z,64.69
